sensor_id;sensor_type;location;lat;lon;timestamp;P1;durP1;ratioP1;P2;durP2;ratioP2
16516;SDS011;8371;52.272;9.746;2024-01-15T00:01:58;4.03;;;3.83;;
16516;SDS011;8371;52.272;9.746;2024-01-15T00:04:24;4.10;;;3.90;;
16516;SDS011;8371;52.272;9.746;2024-01-15T00:06:49;3.83;;;3.63;;
16516;SDS011;8371;52.272;9.746;2024-01-15T00:09:15;3.17;;;3.07;;
16516;SDS011;8371;52.272;9.746;2024-01-15T00:11:42;2.87;;;2.77;;
16516;SDS011;8371;52.272;9.746;2024-01-15T00:14:08;2.83;;;2.73;;
16516;SDS011;8371;52.272;9.746;2024-01-15T00:16:34;2.50;;;2.40;;
16516;SDS011;8371;52.272;9.746;2024-01-15T00:19:00;2.57;;;2.47;;
16516;SDS011;8371;52.272;9.746;2024-01-15T00:21:25;2.60;;;2.50;;
16516;SDS011;8371;52.272;9.746;2024-01-15T00:23:51;3.30;;;3.00;;
16516;SDS011;8371;52.272;9.746;2024-01-15T00:26:17;2.47;;;2.37;;
16516;SDS011;8371;52.272;9.746;2024-01-15T00:28:42;2.13;;;2.03;;
16516;SDS011;8371;52.272;9.746;2024-01-15T00:31:08;3.10;;;3.00;;
16516;SDS011;8371;52.272;9.746;2024-01-15T00:33:34;2.40;;;2.30;;
16516;SDS011;8371;52.272;9.746;2024-01-15T00:36:00;2.97;;;2.73;;
16516;SDS011;8371;52.272;9.746;2024-01-15T00:38:26;3.00;;;2.80;;
16516;SDS011;8371;52.272;9.746;2024-01-15T00:40:52;2.80;;;2.70;;
16516;SDS011;8371;52.272;9.746;2024-01-15T00:43:17;3.00;;;2.90;;
16516;SDS011;8371;52.272;9.746;2024-01-15T00:45:46;2.77;;;2.67;;
16516;SDS011;8371;52.272;9.746;2024-01-15T00:48:12;2.57;;;2.47;;
16516;SDS011;8371;52.272;9.746;2024-01-15T00:50:38;3.00;;;2.67;;
16516;SDS011;8371;52.272;9.746;2024-01-15T00:53:03;2.73;;;2.63;;
16516;SDS011;8371;52.272;9.746;2024-01-15T00:55:29;2.93;;;2.83;;
16516;SDS011;8371;52.272;9.746;2024-01-15T00:57:55;2.20;;;2.10;;
16516;SDS011;8371;52.272;9.746;2024-01-15T01:00:21;2.50;;;2.40;;
16516;SDS011;8371;52.272;9.746;2024-01-15T01:02:46;2.60;;;2.43;;
16516;SDS011;8371;52.272;9.746;2024-01-15T01:05:12;2.70;;;2.60;;
16516;SDS011;8371;52.272;9.746;2024-01-15T01:07:38;2.57;;;2.47;;
16516;SDS011;8371;52.272;9.746;2024-01-15T01:10:04;2.70;;;2.50;;
16516;SDS011;8371;52.272;9.746;2024-01-15T01:12:30;2.57;;;2.47;;
16516;SDS011;8371;52.272;9.746;2024-01-15T01:14:55;2.60;;;2.50;;
16516;SDS011;8371;52.272;9.746;2024-01-15T01:17:21;3.73;;;2.37;;
16516;SDS011;8371;52.272;9.746;2024-01-15T01:19:49;3.27;;;2.67;;
16516;SDS011;8371;52.272;9.746;2024-01-15T01:22:15;3.07;;;2.77;;
16516;SDS011;8371;52.272;9.746;2024-01-15T01:24:40;2.50;;;2.40;;
16516;SDS011;8371;52.272;9.746;2024-01-15T01:27:06;2.77;;;2.40;;
16516;SDS011;8371;52.272;9.746;2024-01-15T01:29:32;2.30;;;2.10;;
16516;SDS011;8371;52.272;9.746;2024-01-15T01:31:58;2.37;;;2.17;;
16516;SDS011;8371;52.272;9.746;2024-01-15T01:34:23;2.37;;;2.17;;
16516;SDS011;8371;52.272;9.746;2024-01-15T01:36:49;2.30;;;2.20;;
16516;SDS011;8371;52.272;9.746;2024-01-15T01:39:15;2.97;;;2.53;;
16516;SDS011;8371;52.272;9.746;2024-01-15T01:41:41;3.53;;;2.17;;
16516;SDS011;8371;52.272;9.746;2024-01-15T01:44:07;2.13;;;1.97;;
16516;SDS011;8371;52.272;9.746;2024-01-15T01:46:32;2.20;;;2.00;;
16516;SDS011;8371;52.272;9.746;2024-01-15T01:49:03;1.97;;;1.87;;
16516;SDS011;8371;52.272;9.746;2024-01-15T01:51:30;4.60;;;2.53;;
16516;SDS011;8371;52.272;9.746;2024-01-15T01:53:57;2.53;;;1.90;;
16516;SDS011;8371;52.272;9.746;2024-01-15T01:56:22;2.73;;;2.53;;
16516;SDS011;8371;52.272;9.746;2024-01-15T01:58:48;2.27;;;2.17;;
16516;SDS011;8371;52.272;9.746;2024-01-15T02:01:14;2.80;;;2.57;;
16516;SDS011;8371;52.272;9.746;2024-01-15T02:03:40;2.20;;;2.00;;
16516;SDS011;8371;52.272;9.746;2024-01-15T02:06:06;2.20;;;1.83;;
16516;SDS011;8371;52.272;9.746;2024-01-15T02:08:32;2.37;;;2.20;;
16516;SDS011;8371;52.272;9.746;2024-01-15T02:11:00;2.37;;;2.17;;
16516;SDS011;8371;52.272;9.746;2024-01-15T02:13:26;2.73;;;2.37;;
16516;SDS011;8371;52.272;9.746;2024-01-15T02:15:51;1.77;;;1.70;;
16516;SDS011;8371;52.272;9.746;2024-01-15T02:18:17;2.10;;;1.90;;
16516;SDS011;8371;52.272;9.746;2024-01-15T02:20:43;3.43;;;2.03;;
16516;SDS011;8371;52.272;9.746;2024-01-15T02:23:10;3.17;;;2.07;;
16516;SDS011;8371;52.272;9.746;2024-01-15T02:25:38;2.87;;;2.43;;
16516;SDS011;8371;52.272;9.746;2024-01-15T02:28:05;6.40;;;2.10;;
16516;SDS011;8371;52.272;9.746;2024-01-15T02:30:34;2.00;;;1.90;;
16516;SDS011;8371;52.272;9.746;2024-01-15T02:33:03;2.07;;;1.97;;
16516;SDS011;8371;52.272;9.746;2024-01-15T02:35:29;5.50;;;1.57;;
16516;SDS011;8371;52.272;9.746;2024-01-15T02:37:54;3.27;;;1.50;;
16516;SDS011;8371;52.272;9.746;2024-01-15T02:40:20;1.30;;;1.20;;
16516;SDS011;8371;52.272;9.746;2024-01-15T02:42:46;3.23;;;1.83;;
16516;SDS011;8371;52.272;9.746;2024-01-15T02:45:11;2.17;;;1.43;;
16516;SDS011;8371;52.272;9.746;2024-01-15T02:47:37;1.60;;;1.50;;
16516;SDS011;8371;52.272;9.746;2024-01-15T02:50:03;2.67;;;1.40;;
16516;SDS011;8371;52.272;9.746;2024-01-15T02:52:29;1.73;;;1.63;;
16516;SDS011;8371;52.272;9.746;2024-01-15T02:54:55;1.70;;;1.60;;
16516;SDS011;8371;52.272;9.746;2024-01-15T02:57:21;4.00;;;1.60;;
16516;SDS011;8371;52.272;9.746;2024-01-15T02:59:46;1.87;;;1.50;;
16516;SDS011;8371;52.272;9.746;2024-01-15T03:02:12;4.07;;;1.60;;
16516;SDS011;8371;52.272;9.746;2024-01-15T03:04:42;1.40;;;1.30;;
16516;SDS011;8371;52.272;9.746;2024-01-15T03:07:11;1.90;;;1.47;;
16516;SDS011;8371;52.272;9.746;2024-01-15T03:09:37;3.00;;;1.27;;
16516;SDS011;8371;52.272;9.746;2024-01-15T03:12:03;3.60;;;1.73;;
16516;SDS011;8371;52.272;9.746;2024-01-15T03:14:29;2.87;;;1.70;;
16516;SDS011;8371;52.272;9.746;2024-01-15T03:16:55;1.77;;;1.40;;
16516;SDS011;8371;52.272;9.746;2024-01-15T03:19:21;2.93;;;1.47;;
16516;SDS011;8371;52.272;9.746;2024-01-15T03:21:47;2.30;;;1.10;;
16516;SDS011;8371;52.272;9.746;2024-01-15T03:24:13;1.37;;;1.27;;
16516;SDS011;8371;52.272;9.746;2024-01-15T03:26:39;1.57;;;1.20;;
16516;SDS011;8371;52.272;9.746;2024-01-15T03:29:04;2.20;;;1.40;;
16516;SDS011;8371;52.272;9.746;2024-01-15T03:31:30;1.27;;;1.10;;
16516;SDS011;8371;52.272;9.746;2024-01-15T03:33:56;1.83;;;1.20;;
16516;SDS011;8371;52.272;9.746;2024-01-15T03:36:22;1.13;;;1.03;;
16516;SDS011;8371;52.272;9.746;2024-01-15T03:38:47;1.87;;;1.10;;
16516;SDS011;8371;52.272;9.746;2024-01-15T03:41:13;4.00;;;1.10;;
16516;SDS011;8371;52.272;9.746;2024-01-15T03:43:39;1.43;;;1.13;;
16516;SDS011;8371;52.272;9.746;2024-01-15T03:46:05;0.80;;;0.70;;
16516;SDS011;8371;52.272;9.746;2024-01-15T03:48:31;1.40;;;1.03;;
16516;SDS011;8371;52.272;9.746;2024-01-15T03:50:56;3.90;;;1.40;;
16516;SDS011;8371;52.272;9.746;2024-01-15T03:53:22;1.53;;;1.40;;
16516;SDS011;8371;52.272;9.746;2024-01-15T03:55:48;4.70;;;1.40;;
16516;SDS011;8371;52.272;9.746;2024-01-15T03:58:14;2.47;;;1.57;;
16516;SDS011;8371;52.272;9.746;2024-01-15T04:00:40;1.60;;;1.20;;
16516;SDS011;8371;52.272;9.746;2024-01-15T04:03:06;1.40;;;1.30;;
16516;SDS011;8371;52.272;9.746;2024-01-15T04:05:32;1.77;;;1.20;;
16516;SDS011;8371;52.272;9.746;2024-01-15T04:07:58;1.57;;;1.47;;
16516;SDS011;8371;52.272;9.746;2024-01-15T04:10:23;2.47;;;1.50;;
16516;SDS011;8371;52.272;9.746;2024-01-15T04:12:49;3.93;;;1.67;;
16516;SDS011;8371;52.272;9.746;2024-01-15T04:15:15;1.27;;;1.20;;
16516;SDS011;8371;52.272;9.746;2024-01-15T04:17:41;2.50;;;1.13;;
16516;SDS011;8371;52.272;9.746;2024-01-15T04:20:07;1.10;;;1.10;;
16516;SDS011;8371;52.272;9.746;2024-01-15T04:22:33;0.83;;;0.83;;
16516;SDS011;8371;52.272;9.746;2024-01-15T04:25:00;1.00;;;0.83;;
16516;SDS011;8371;52.272;9.746;2024-01-15T04:27:26;1.43;;;1.07;;
16516;SDS011;8371;52.272;9.746;2024-01-15T04:29:52;2.20;;;1.10;;
16516;SDS011;8371;52.272;9.746;2024-01-15T04:32:18;1.17;;;0.93;;
16516;SDS011;8371;52.272;9.746;2024-01-15T04:34:44;1.40;;;1.30;;
16516;SDS011;8371;52.272;9.746;2024-01-15T04:37:10;1.17;;;0.80;;
16516;SDS011;8371;52.272;9.746;2024-01-15T04:39:36;1.23;;;1.03;;
16516;SDS011;8371;52.272;9.746;2024-01-15T04:42:01;1.67;;;0.80;;
16516;SDS011;8371;52.272;9.746;2024-01-15T04:44:28;1.63;;;1.13;;
16516;SDS011;8371;52.272;9.746;2024-01-15T04:46:53;2.57;;;0.90;;
16516;SDS011;8371;52.272;9.746;2024-01-15T04:49:19;1.80;;;1.10;;
16516;SDS011;8371;52.272;9.746;2024-01-15T04:51:45;4.93;;;1.07;;
16516;SDS011;8371;52.272;9.746;2024-01-15T04:54:11;1.73;;;1.10;;
16516;SDS011;8371;52.272;9.746;2024-01-15T04:56:36;1.20;;;1.00;;
16516;SDS011;8371;52.272;9.746;2024-01-15T04:59:02;2.80;;;1.30;;
16516;SDS011;8371;52.272;9.746;2024-01-15T05:01:31;0.90;;;0.90;;
16516;SDS011;8371;52.272;9.746;2024-01-15T05:03:58;3.67;;;1.20;;
16516;SDS011;8371;52.272;9.746;2024-01-15T05:06:24;2.33;;;1.07;;
16516;SDS011;8371;52.272;9.746;2024-01-15T05:08:49;1.47;;;0.97;;
16516;SDS011;8371;52.272;9.746;2024-01-15T05:11:15;2.10;;;1.00;;
16516;SDS011;8371;52.272;9.746;2024-01-15T05:13:41;2.50;;;1.20;;
16516;SDS011;8371;52.272;9.746;2024-01-15T05:16:07;1.17;;;0.90;;
16516;SDS011;8371;52.272;9.746;2024-01-15T05:18:32;1.27;;;1.10;;
16516;SDS011;8371;52.272;9.746;2024-01-15T05:20:58;1.33;;;1.23;;
16516;SDS011;8371;52.272;9.746;2024-01-15T05:23:24;0.93;;;0.90;;
16516;SDS011;8371;52.272;9.746;2024-01-15T05:25:49;1.53;;;0.70;;
16516;SDS011;8371;52.272;9.746;2024-01-15T05:28:15;2.10;;;1.00;;
16516;SDS011;8371;52.272;9.746;2024-01-15T05:30:41;0.80;;;0.80;;
16516;SDS011;8371;52.272;9.746;2024-01-15T05:33:07;0.60;;;0.60;;
16516;SDS011;8371;52.272;9.746;2024-01-15T05:35:33;1.27;;;0.80;;
16516;SDS011;8371;52.272;9.746;2024-01-15T05:37:59;2.50;;;1.10;;
16516;SDS011;8371;52.272;9.746;2024-01-15T05:40:25;1.13;;;0.97;;
16516;SDS011;8371;52.272;9.746;2024-01-15T05:42:51;1.13;;;0.90;;
16516;SDS011;8371;52.272;9.746;2024-01-15T05:45:16;0.97;;;0.90;;
16516;SDS011;8371;52.272;9.746;2024-01-15T05:47:42;0.90;;;0.80;;
16516;SDS011;8371;52.272;9.746;2024-01-15T05:50:09;1.03;;;1.03;;
16516;SDS011;8371;52.272;9.746;2024-01-15T05:52:35;1.47;;;0.80;;
16516;SDS011;8371;52.272;9.746;2024-01-15T05:55:01;1.10;;;1.00;;
16516;SDS011;8371;52.272;9.746;2024-01-15T05:57:27;1.73;;;1.33;;
16516;SDS011;8371;52.272;9.746;2024-01-15T05:59:53;3.70;;;1.40;;
16516;SDS011;8371;52.272;9.746;2024-01-15T06:02:19;1.93;;;1.60;;
16516;SDS011;8371;52.272;9.746;2024-01-15T06:04:45;1.03;;;0.93;;
16516;SDS011;8371;52.272;9.746;2024-01-15T06:07:11;1.93;;;1.00;;
16516;SDS011;8371;52.272;9.746;2024-01-15T06:09:36;1.40;;;1.17;;
16516;SDS011;8371;52.272;9.746;2024-01-15T06:12:03;0.67;;;0.67;;
16516;SDS011;8371;52.272;9.746;2024-01-15T06:14:30;0.63;;;0.60;;
16516;SDS011;8371;52.272;9.746;2024-01-15T06:16:56;0.90;;;0.90;;
16516;SDS011;8371;52.272;9.746;2024-01-15T06:19:21;0.50;;;0.50;;
16516;SDS011;8371;52.272;9.746;2024-01-15T06:21:47;0.57;;;0.57;;
16516;SDS011;8371;52.272;9.746;2024-01-15T06:24:13;0.60;;;0.60;;
16516;SDS011;8371;52.272;9.746;2024-01-15T06:26:39;1.63;;;1.10;;
16516;SDS011;8371;52.272;9.746;2024-01-15T06:29:04;1.37;;;1.20;;
16516;SDS011;8371;52.272;9.746;2024-01-15T06:31:30;2.20;;;1.20;;
16516;SDS011;8371;52.272;9.746;2024-01-15T06:33:56;1.10;;;1.00;;
16516;SDS011;8371;52.272;9.746;2024-01-15T06:36:22;1.33;;;1.10;;
16516;SDS011;8371;52.272;9.746;2024-01-15T06:38:47;1.60;;;1.40;;
16516;SDS011;8371;52.272;9.746;2024-01-15T06:41:13;1.53;;;1.30;;
16516;SDS011;8371;52.272;9.746;2024-01-15T06:43:39;2.53;;;1.10;;
16516;SDS011;8371;52.272;9.746;2024-01-15T06:46:04;1.47;;;1.37;;
16516;SDS011;8371;52.272;9.746;2024-01-15T06:48:30;1.97;;;1.40;;
16516;SDS011;8371;52.272;9.746;2024-01-15T06:50:56;1.93;;;1.47;;
16516;SDS011;8371;52.272;9.746;2024-01-15T06:53:21;1.10;;;1.00;;
16516;SDS011;8371;52.272;9.746;2024-01-15T06:55:47;3.20;;;1.17;;
16516;SDS011;8371;52.272;9.746;2024-01-15T06:58:14;1.30;;;1.00;;
16516;SDS011;8371;52.272;9.746;2024-01-15T07:00:40;2.20;;;1.00;;
16516;SDS011;8371;52.272;9.746;2024-01-15T07:03:06;2.87;;;1.07;;
16516;SDS011;8371;52.272;9.746;2024-01-15T07:05:31;1.77;;;1.17;;
16516;SDS011;8371;52.272;9.746;2024-01-15T07:07:57;1.27;;;1.17;;
16516;SDS011;8371;52.272;9.746;2024-01-15T07:10:23;2.93;;;1.00;;
16516;SDS011;8371;52.272;9.746;2024-01-15T07:12:49;1.17;;;1.17;;
16516;SDS011;8371;52.272;9.746;2024-01-15T07:15:14;2.57;;;1.10;;
16516;SDS011;8371;52.272;9.746;2024-01-15T07:17:41;1.40;;;1.30;;
16516;SDS011;8371;52.272;9.746;2024-01-15T07:20:08;1.27;;;0.83;;
16516;SDS011;8371;52.272;9.746;2024-01-15T07:22:37;0.87;;;0.87;;
16516;SDS011;8371;52.272;9.746;2024-01-15T07:25:03;1.03;;;1.03;;
16516;SDS011;8371;52.272;9.746;2024-01-15T07:27:30;0.93;;;0.90;;
16516;SDS011;8371;52.272;9.746;2024-01-15T07:29:57;1.37;;;0.87;;
16516;SDS011;8371;52.272;9.746;2024-01-15T07:32:23;0.77;;;0.77;;
16516;SDS011;8371;52.272;9.746;2024-01-15T07:34:49;1.40;;;1.30;;
16516;SDS011;8371;52.272;9.746;2024-01-15T07:37:15;1.47;;;0.93;;
16516;SDS011;8371;52.272;9.746;2024-01-15T07:39:42;0.70;;;0.70;;
16516;SDS011;8371;52.272;9.746;2024-01-15T07:42:08;0.83;;;0.80;;
16516;SDS011;8371;52.272;9.746;2024-01-15T07:44:34;1.33;;;1.10;;
16516;SDS011;8371;52.272;9.746;2024-01-15T07:46:59;1.07;;;1.07;;
16516;SDS011;8371;52.272;9.746;2024-01-15T07:49:25;1.07;;;0.90;;
16516;SDS011;8371;52.272;9.746;2024-01-15T07:51:51;1.30;;;1.30;;
16516;SDS011;8371;52.272;9.746;2024-01-15T07:54:16;2.47;;;1.10;;
16516;SDS011;8371;52.272;9.746;2024-01-15T07:56:58;1.10;;;1.10;;
16516;SDS011;8371;52.272;9.746;2024-01-15T07:59:26;1.60;;;1.03;;
16516;SDS011;8371;52.272;9.746;2024-01-15T08:01:52;1.43;;;1.23;;
16516;SDS011;8371;52.272;9.746;2024-01-15T08:04:19;0.90;;;0.90;;
16516;SDS011;8371;52.272;9.746;2024-01-15T08:06:45;0.90;;;0.90;;
16516;SDS011;8371;52.272;9.746;2024-01-15T08:09:11;1.43;;;1.30;;
16516;SDS011;8371;52.272;9.746;2024-01-15T08:11:41;1.17;;;1.07;;
16516;SDS011;8371;52.272;9.746;2024-01-15T08:14:08;0.73;;;0.73;;
16516;SDS011;8371;52.272;9.746;2024-01-15T08:16:34;1.33;;;1.23;;
16516;SDS011;8371;52.272;9.746;2024-01-15T08:19:00;1.00;;;0.90;;
16516;SDS011;8371;52.272;9.746;2024-01-15T08:21:26;1.10;;;1.10;;
16516;SDS011;8371;52.272;9.746;2024-01-15T08:23:54;1.00;;;0.90;;
16516;SDS011;8371;52.272;9.746;2024-01-15T08:26:19;0.73;;;0.73;;
16516;SDS011;8371;52.272;9.746;2024-01-15T08:28:46;2.53;;;0.73;;
16516;SDS011;8371;52.272;9.746;2024-01-15T08:31:12;0.70;;;0.70;;
16516;SDS011;8371;52.272;9.746;2024-01-15T08:33:38;1.03;;;0.50;;
16516;SDS011;8371;52.272;9.746;2024-01-15T08:36:04;1.30;;;0.93;;
16516;SDS011;8371;52.272;9.746;2024-01-15T08:38:30;1.23;;;0.70;;
16516;SDS011;8371;52.272;9.746;2024-01-15T08:40:55;1.23;;;0.80;;
16516;SDS011;8371;52.272;9.746;2024-01-15T08:43:23;0.90;;;0.90;;
16516;SDS011;8371;52.272;9.746;2024-01-15T08:45:49;0.80;;;0.80;;
16516;SDS011;8371;52.272;9.746;2024-01-15T08:48:14;2.47;;;0.93;;
16516;SDS011;8371;52.272;9.746;2024-01-15T08:50:40;1.43;;;0.87;;
16516;SDS011;8371;52.272;9.746;2024-01-15T08:53:06;0.87;;;0.87;;
16516;SDS011;8371;52.272;9.746;2024-01-15T08:55:31;0.80;;;0.80;;
16516;SDS011;8371;52.272;9.746;2024-01-15T08:57:57;1.50;;;1.00;;
16516;SDS011;8371;52.272;9.746;2024-01-15T09:00:23;1.87;;;1.10;;
16516;SDS011;8371;52.272;9.746;2024-01-15T09:02:49;2.50;;;1.03;;
16516;SDS011;8371;52.272;9.746;2024-01-15T09:05:15;1.33;;;0.97;;
16516;SDS011;8371;52.272;9.746;2024-01-15T09:07:40;2.07;;;0.90;;
16516;SDS011;8371;52.272;9.746;2024-01-15T09:10:06;1.00;;;1.00;;
16516;SDS011;8371;52.272;9.746;2024-01-15T09:12:32;1.30;;;1.17;;
16516;SDS011;8371;52.272;9.746;2024-01-15T09:14:58;1.00;;;0.90;;
16516;SDS011;8371;52.272;9.746;2024-01-15T09:17:24;1.53;;;0.90;;
16516;SDS011;8371;52.272;9.746;2024-01-15T09:19:49;1.57;;;1.00;;
16516;SDS011;8371;52.272;9.746;2024-01-15T09:22:15;0.80;;;0.80;;
16516;SDS011;8371;52.272;9.746;2024-01-15T09:24:44;2.00;;;1.23;;
16516;SDS011;8371;52.272;9.746;2024-01-15T09:27:10;1.10;;;1.00;;
16516;SDS011;8371;52.272;9.746;2024-01-15T09:29:36;2.00;;;1.07;;
16516;SDS011;8371;52.272;9.746;2024-01-15T09:32:04;1.20;;;1.00;;
16516;SDS011;8371;52.272;9.746;2024-01-15T09:34:29;1.70;;;1.10;;
16516;SDS011;8371;52.272;9.746;2024-01-15T09:36:55;1.13;;;1.00;;
16516;SDS011;8371;52.272;9.746;2024-01-15T09:39:21;0.80;;;0.80;;
16516;SDS011;8371;52.272;9.746;2024-01-15T09:41:49;1.20;;;1.03;;
16516;SDS011;8371;52.272;9.746;2024-01-15T09:44:15;5.50;;;1.47;;
16516;SDS011;8371;52.272;9.746;2024-01-15T09:46:41;1.40;;;1.03;;
16516;SDS011;8371;52.272;9.746;2024-01-15T09:49:09;1.23;;;1.00;;
16516;SDS011;8371;52.272;9.746;2024-01-15T09:51:34;1.13;;;1.13;;
16516;SDS011;8371;52.272;9.746;2024-01-15T09:54:02;1.40;;;1.13;;
16516;SDS011;8371;52.272;9.746;2024-01-15T09:56:29;3.77;;;1.00;;
16516;SDS011;8371;52.272;9.746;2024-01-15T09:58:56;2.93;;;1.20;;
16516;SDS011;8371;52.272;9.746;2024-01-15T10:01:23;1.13;;;1.00;;
16516;SDS011;8371;52.272;9.746;2024-01-15T10:03:49;0.97;;;0.97;;
16516;SDS011;8371;52.272;9.746;2024-01-15T10:06:16;1.00;;;0.90;;
16516;SDS011;8371;52.272;9.746;2024-01-15T10:08:43;1.20;;;1.13;;
16516;SDS011;8371;52.272;9.746;2024-01-15T10:11:12;1.40;;;1.30;;
16516;SDS011;8371;52.272;9.746;2024-01-15T10:13:38;0.90;;;0.80;;
16516;SDS011;8371;52.272;9.746;2024-01-15T10:16:05;0.80;;;0.80;;
16516;SDS011;8371;52.272;9.746;2024-01-15T10:18:31;0.50;;;0.50;;
16516;SDS011;8371;52.272;9.746;2024-01-15T10:20:57;0.70;;;0.70;;
16516;SDS011;8371;52.272;9.746;2024-01-15T10:23:26;0.80;;;0.80;;
16516;SDS011;8371;52.272;9.746;2024-01-15T10:25:52;0.70;;;0.70;;
16516;SDS011;8371;52.272;9.746;2024-01-15T10:28:18;0.70;;;0.70;;
16516;SDS011;8371;52.272;9.746;2024-01-15T10:30:45;0.67;;;0.50;;
16516;SDS011;8371;52.272;9.746;2024-01-15T10:33:11;0.50;;;0.50;;
16516;SDS011;8371;52.272;9.746;2024-01-15T10:35:37;2.57;;;0.53;;
16516;SDS011;8371;52.272;9.746;2024-01-15T10:38:03;1.63;;;0.87;;
16516;SDS011;8371;52.272;9.746;2024-01-15T10:40:31;0.63;;;0.63;;
16516;SDS011;8371;52.272;9.746;2024-01-15T10:42:57;1.30;;;0.73;;
16516;SDS011;8371;52.272;9.746;2024-01-15T10:45:23;1.27;;;0.77;;
16516;SDS011;8371;52.272;9.746;2024-01-15T10:47:50;0.60;;;0.60;;
16516;SDS011;8371;52.272;9.746;2024-01-15T10:50:15;0.40;;;0.40;;
16516;SDS011;8371;52.272;9.746;2024-01-15T10:52:41;1.03;;;0.80;;
16516;SDS011;8371;52.272;9.746;2024-01-15T10:55:11;1.53;;;0.70;;
16516;SDS011;8371;52.272;9.746;2024-01-15T10:57:37;0.60;;;0.60;;
16516;SDS011;8371;52.272;9.746;2024-01-15T11:00:08;0.70;;;0.70;;
16516;SDS011;8371;52.272;9.746;2024-01-15T11:02:32;2.20;;;0.80;;
16516;SDS011;8371;52.272;9.746;2024-01-15T11:04:59;0.50;;;0.40;;
16516;SDS011;8371;52.272;9.746;2024-01-15T11:07:25;1.77;;;0.93;;
16516;SDS011;8371;52.272;9.746;2024-01-15T11:09:51;1.33;;;0.90;;
16516;SDS011;8371;52.272;9.746;2024-01-15T11:12:17;2.87;;;0.80;;
16516;SDS011;8371;52.272;9.746;2024-01-15T11:14:48;1.27;;;1.17;;
16516;SDS011;8371;52.272;9.746;2024-01-15T11:17:15;0.80;;;0.73;;
16516;SDS011;8371;52.272;9.746;2024-01-15T11:19:45;0.77;;;0.77;;
16516;SDS011;8371;52.272;9.746;2024-01-15T11:25:14;1.13;;;0.97;;
16516;SDS011;8371;52.272;9.746;2024-01-15T11:30:18;2.43;;;0.50;;
16516;SDS011;8371;52.272;9.746;2024-01-15T11:32:48;0.90;;;0.63;;
16516;SDS011;8371;52.272;9.746;2024-01-15T11:35:13;1.73;;;0.97;;
16516;SDS011;8371;52.272;9.746;2024-01-15T11:40:23;0.97;;;0.80;;
16516;SDS011;8371;52.272;9.746;2024-01-15T11:42:59;1.10;;;1.10;;
16516;SDS011;8371;52.272;9.746;2024-01-15T11:45:25;1.23;;;0.83;;
16516;SDS011;8371;52.272;9.746;2024-01-15T11:50:46;0.73;;;0.70;;
16516;SDS011;8371;52.272;9.746;2024-01-15T11:53:21;1.30;;;0.70;;
16516;SDS011;8371;52.272;9.746;2024-01-15T11:55:46;3.50;;;1.13;;
16516;SDS011;8371;52.272;9.746;2024-01-15T11:58:14;1.70;;;1.03;;
16516;SDS011;8371;52.272;9.746;2024-01-15T12:00:45;0.70;;;0.70;;
16516;SDS011;8371;52.272;9.746;2024-01-15T12:03:16;1.23;;;1.13;;
16516;SDS011;8371;52.272;9.746;2024-01-15T12:05:42;1.70;;;0.90;;
16516;SDS011;8371;52.272;9.746;2024-01-15T12:08:07;2.93;;;1.20;;
16516;SDS011;8371;52.272;9.746;2024-01-15T12:10:39;1.30;;;1.20;;
16516;SDS011;8371;52.272;9.746;2024-01-15T12:13:09;1.90;;;0.93;;
16516;SDS011;8371;52.272;9.746;2024-01-15T12:15:39;1.00;;;0.97;;
16516;SDS011;8371;52.272;9.746;2024-01-15T12:18:07;3.10;;;1.13;;
16516;SDS011;8371;52.272;9.746;2024-01-15T12:20:39;5.00;;;1.00;;
16516;SDS011;8371;52.272;9.746;2024-01-15T12:23:05;1.03;;;1.00;;
16516;SDS011;8371;52.272;9.746;2024-01-15T12:25:31;1.67;;;0.90;;
16516;SDS011;8371;52.272;9.746;2024-01-15T12:27:58;0.73;;;0.73;;
16516;SDS011;8371;52.272;9.746;2024-01-15T12:30:25;0.80;;;0.80;;
16516;SDS011;8371;52.272;9.746;2024-01-15T12:32:52;3.83;;;1.37;;
16516;SDS011;8371;52.272;9.746;2024-01-15T12:35:18;1.67;;;0.90;;
16516;SDS011;8371;52.272;9.746;2024-01-15T12:37:44;1.00;;;0.83;;
16516;SDS011;8371;52.272;9.746;2024-01-15T12:40:11;1.40;;;1.00;;
16516;SDS011;8371;52.272;9.746;2024-01-15T12:42:40;1.07;;;0.97;;
16516;SDS011;8371;52.272;9.746;2024-01-15T12:45:07;3.60;;;0.90;;
16516;SDS011;8371;52.272;9.746;2024-01-15T12:47:34;2.57;;;1.40;;
16516;SDS011;8371;52.272;9.746;2024-01-15T12:50:00;0.83;;;0.83;;
16516;SDS011;8371;52.272;9.746;2024-01-15T12:52:26;1.50;;;0.60;;
16516;SDS011;8371;52.272;9.746;2024-01-15T12:54:53;1.20;;;0.90;;
16516;SDS011;8371;52.272;9.746;2024-01-15T12:57:19;2.87;;;0.97;;
16516;SDS011;8371;52.272;9.746;2024-01-15T12:59:44;1.07;;;0.80;;
16516;SDS011;8371;52.272;9.746;2024-01-15T13:02:11;1.30;;;0.80;;
16516;SDS011;8371;52.272;9.746;2024-01-15T13:04:37;1.00;;;1.00;;
16516;SDS011;8371;52.272;9.746;2024-01-15T13:07:02;1.67;;;1.20;;
16516;SDS011;8371;52.272;9.746;2024-01-15T13:09:28;0.80;;;0.67;;
16516;SDS011;8371;52.272;9.746;2024-01-15T13:11:55;1.20;;;0.57;;
16516;SDS011;8371;52.272;9.746;2024-01-15T13:14:20;0.90;;;0.87;;
16516;SDS011;8371;52.272;9.746;2024-01-15T13:16:46;0.80;;;0.80;;
16516;SDS011;8371;52.272;9.746;2024-01-15T13:19:12;1.27;;;0.70;;
16516;SDS011;8371;52.272;9.746;2024-01-15T13:21:39;1.60;;;0.70;;
16516;SDS011;8371;52.272;9.746;2024-01-15T13:24:08;0.80;;;0.80;;
16516;SDS011;8371;52.272;9.746;2024-01-15T13:26:34;1.40;;;0.73;;
16516;SDS011;8371;52.272;9.746;2024-01-15T13:29:01;1.50;;;0.80;;
16516;SDS011;8371;52.272;9.746;2024-01-15T13:31:27;0.90;;;0.80;;
16516;SDS011;8371;52.272;9.746;2024-01-15T13:33:53;1.57;;;0.67;;
16516;SDS011;8371;52.272;9.746;2024-01-15T13:36:21;1.63;;;0.80;;
16516;SDS011;8371;52.272;9.746;2024-01-15T13:38:49;1.17;;;1.07;;
16516;SDS011;8371;52.272;9.746;2024-01-15T13:41:17;1.43;;;0.87;;
16516;SDS011;8371;52.272;9.746;2024-01-15T13:43:45;0.40;;;0.40;;
16516;SDS011;8371;52.272;9.746;2024-01-15T13:46:11;0.63;;;0.63;;
16516;SDS011;8371;52.272;9.746;2024-01-15T13:48:37;1.73;;;0.70;;
16516;SDS011;8371;52.272;9.746;2024-01-15T13:51:03;1.93;;;0.80;;
16516;SDS011;8371;52.272;9.746;2024-01-15T13:53:29;0.57;;;0.50;;
16516;SDS011;8371;52.272;9.746;2024-01-15T13:55:55;0.93;;;0.60;;
16516;SDS011;8371;52.272;9.746;2024-01-15T13:58:21;2.60;;;0.70;;
16516;SDS011;8371;52.272;9.746;2024-01-15T14:00:47;7.17;;;1.00;;
16516;SDS011;8371;52.272;9.746;2024-01-15T14:03:14;0.93;;;0.93;;
16516;SDS011;8371;52.272;9.746;2024-01-15T14:05:40;0.60;;;0.60;;
16516;SDS011;8371;52.272;9.746;2024-01-15T14:08:06;0.83;;;0.70;;
16516;SDS011;8371;52.272;9.746;2024-01-15T14:10:31;1.77;;;0.97;;
16516;SDS011;8371;52.272;9.746;2024-01-15T14:12:58;0.50;;;0.50;;
16516;SDS011;8371;52.272;9.746;2024-01-15T14:15:23;2.13;;;0.83;;
16516;SDS011;8371;52.272;9.746;2024-01-15T14:17:49;0.60;;;0.60;;
16516;SDS011;8371;52.272;9.746;2024-01-15T14:20:15;0.60;;;0.60;;
16516;SDS011;8371;52.272;9.746;2024-01-15T14:22:41;0.40;;;0.40;;
16516;SDS011;8371;52.272;9.746;2024-01-15T14:25:07;0.67;;;0.67;;
16516;SDS011;8371;52.272;9.746;2024-01-15T14:27:33;1.27;;;0.60;;
16516;SDS011;8371;52.272;9.746;2024-01-15T14:29:58;0.53;;;0.53;;
16516;SDS011;8371;52.272;9.746;2024-01-15T14:32:24;0.50;;;0.50;;
16516;SDS011;8371;52.272;9.746;2024-01-15T14:34:50;0.50;;;0.50;;
16516;SDS011;8371;52.272;9.746;2024-01-15T14:37:15;0.93;;;0.83;;
16516;SDS011;8371;52.272;9.746;2024-01-15T14:39:41;1.13;;;1.03;;
16516;SDS011;8371;52.272;9.746;2024-01-15T14:42:08;1.20;;;0.87;;
16516;SDS011;8371;52.272;9.746;2024-01-15T14:44:34;0.67;;;0.67;;
16516;SDS011;8371;52.272;9.746;2024-01-15T14:47:00;0.87;;;0.87;;
16516;SDS011;8371;52.272;9.746;2024-01-15T14:49:26;0.70;;;0.70;;
16516;SDS011;8371;52.272;9.746;2024-01-15T14:51:51;0.90;;;0.87;;
16516;SDS011;8371;52.272;9.746;2024-01-15T14:54:17;0.70;;;0.70;;
16516;SDS011;8371;52.272;9.746;2024-01-15T14:56:43;0.87;;;0.87;;
16516;SDS011;8371;52.272;9.746;2024-01-15T14:59:08;0.60;;;0.60;;
16516;SDS011;8371;52.272;9.746;2024-01-15T15:01:34;0.57;;;0.57;;
16516;SDS011;8371;52.272;9.746;2024-01-15T15:04:00;2.10;;;0.90;;
16516;SDS011;8371;52.272;9.746;2024-01-15T15:06:26;0.57;;;0.57;;